createdAt,value
2019-04-14T00:00:03.359Z,25.60
2019-04-14T00:02:40.530Z,25.45
2019-04-14T00:05:08.432Z,25.25
2019-04-14T00:07:34.548Z,25.05
2019-04-14T00:10:00.784Z,24.35
2019-04-14T00:12:27.333Z,23.02
2019-04-14T00:14:53.452Z,26.90
2019-04-14T00:17:19.600Z,26.23
2019-04-14T00:19:45.733Z,24.90
2019-04-14T00:22:11.803Z,24.82
2019-04-14T00:24:38.117Z,25.48
2019-04-14T00:27:04.262Z,25.35
2019-04-14T00:29:30.637Z,27.52
2019-04-14T00:31:57.009Z,27.45
2019-04-14T00:34:35.224Z,26.23
2019-04-14T00:37:03.439Z,26.12
2019-04-14T00:39:31.596Z,25.72
2019-04-14T00:42:02.102Z,25.37
2019-04-14T00:44:47.399Z,27.37
2019-04-14T00:47:15.787Z,26.27
2019-04-14T00:49:41.983Z,25.43
2019-04-14T00:52:07.965Z,27.48
2019-04-14T00:54:34.623Z,25.00
2019-04-14T00:57:00.905Z,24.95
2019-04-14T00:59:27.036Z,25.05
2019-04-14T01:01:52.834Z,26.17
2019-04-14T01:04:18.757Z,25.57
2019-04-14T01:06:44.934Z,25.60
2019-04-14T01:09:13.070Z,25.32
2019-04-14T01:11:39.990Z,24.80
2019-04-14T01:14:06.113Z,26.85
2019-04-14T01:16:32.208Z,25.43
2019-04-14T01:18:58.285Z,27.50
2019-04-14T01:21:24.402Z,26.40
2019-04-14T01:23:50.242Z,26.57
2019-04-14T01:26:16.063Z,25.27
2019-04-14T01:28:41.947Z,27.60
2019-04-14T01:31:08.095Z,27.43
2019-04-14T01:33:33.907Z,26.07
2019-04-14T01:36:00.009Z,26.47
2019-04-14T01:38:26.096Z,26.60
2019-04-14T01:40:53.058Z,24.65
2019-04-14T01:43:18.996Z,25.65
2019-04-14T01:45:58.108Z,26.00
2019-04-14T01:48:12.808Z,25.97
2019-04-14T01:50:40.949Z,26.27
2019-04-14T01:53:09.675Z,26.87
2019-04-14T01:55:44.089Z,27.13
2019-04-14T01:58:14.669Z,25.10
2019-04-14T02:00:46.577Z,27.77
2019-04-14T02:03:12.828Z,26.55
2019-04-14T02:05:38.653Z,29.70
2019-04-14T02:08:04.563Z,24.40
2019-04-14T02:10:30.543Z,25.30
2019-04-14T02:12:56.589Z,25.77
2019-04-14T02:15:22.438Z,23.98
2019-04-14T02:17:48.495Z,25.97
2019-04-14T02:20:14.295Z,25.32
2019-04-14T02:22:40.092Z,25.27
2019-04-14T02:25:05.934Z,28.63
2019-04-14T02:27:32.020Z,25.93
2019-04-14T02:29:58.234Z,26.95
2019-04-14T02:32:49.418Z,27.82
2019-04-14T02:40:21.781Z,26.60
2019-04-14T02:42:42.038Z,27.70
2019-04-14T02:45:12.322Z,28.50
2019-04-14T02:50:05.364Z,25.70
2019-04-14T02:54:59.496Z,25.45
2019-04-14T02:57:30.261Z,26.17
2019-04-14T03:00:03.468Z,25.97
2019-04-14T03:04:50.638Z,25.75
2019-04-14T03:07:21.945Z,23.45
2019-04-14T03:12:16.435Z,23.35
2019-04-14T03:14:49.318Z,25.27
2019-04-14T03:17:24.795Z,24.52
2019-04-14T03:22:28.885Z,23.42
2019-04-14T03:25:00.483Z,24.57
2019-04-14T03:27:55.103Z,23.35
2019-04-14T03:30:33.605Z,24.63
2019-04-14T03:33:05.291Z,26.00
2019-04-14T03:35:35.775Z,25.00
2019-04-14T03:37:45.284Z,27.73
2019-04-14T03:40:15.949Z,24.12
2019-04-14T03:45:22.249Z,27.45
2019-04-14T03:47:25.757Z,22.87
2019-04-14T03:50:00.330Z,25.40
2019-04-14T03:52:34.964Z,25.57
2019-04-14T03:54:44.132Z,26.27
2019-04-14T03:56:55.805Z,26.42
2019-04-14T03:59:22.047Z,27.05
2019-04-14T04:01:49.943Z,25.92
2019-04-14T04:04:16.190Z,25.75
2019-04-14T04:06:42.312Z,27.00
2019-04-14T04:09:08.411Z,23.92
2019-04-14T04:11:34.526Z,27.73
2019-04-14T04:14:00.675Z,24.45
2019-04-14T04:16:29.052Z,26.12
2019-04-14T04:19:05.417Z,25.57
2019-04-14T04:21:44.369Z,27.48
2019-04-14T04:24:12.889Z,26.17
2019-04-14T04:26:43.514Z,26.95
2019-04-14T04:29:11.305Z,25.08
2019-04-14T04:31:52.539Z,24.52
2019-04-14T04:34:38.409Z,26.62
2019-04-14T04:37:14.991Z,25.15
2019-04-14T04:39:56.042Z,28.42
2019-04-14T04:42:22.245Z,27.77
2019-04-14T04:44:48.800Z,27.93
2019-04-14T04:47:14.944Z,27.17
2019-04-14T04:49:40.742Z,28.75
2019-04-14T04:52:06.563Z,27.17
2019-04-14T04:54:32.639Z,26.70
2019-04-14T04:56:58.449Z,27.48
2019-04-14T04:59:25.498Z,26.80
2019-04-14T05:01:51.656Z,28.27
2019-04-14T05:04:17.710Z,28.73
2019-04-14T05:06:50.614Z,26.68
2019-04-14T05:09:36.851Z,26.48
2019-04-14T05:12:24.269Z,28.02
2019-04-14T05:15:01.463Z,27.55
2019-04-14T05:17:29.867Z,27.30
2019-04-14T05:19:56.238Z,27.93
2019-04-14T05:22:22.394Z,28.47
2019-04-14T05:24:48.590Z,31.15
2019-04-14T05:27:14.627Z,28.52
2019-04-14T05:29:40.846Z,27.65
2019-04-14T05:32:06.702Z,27.17
2019-04-14T05:34:32.766Z,28.47
2019-04-14T05:36:58.574Z,28.25
2019-04-14T05:39:24.621Z,29.00
2019-04-14T05:42:00.518Z,28.73
2019-04-14T05:44:18.636Z,24.90
2019-04-14T05:46:44.729Z,29.60
2019-04-14T05:49:10.949Z,27.42
2019-04-14T05:51:39.135Z,28.80
2019-04-14T05:54:05.677Z,28.27
2019-04-14T05:56:32.570Z,28.35
2019-04-14T05:59:00.123Z,27.10
2019-04-14T06:01:26.972Z,28.05
2019-04-14T06:03:53.930Z,26.90
2019-04-14T06:06:19.811Z,29.98
2019-04-14T06:08:45.628Z,26.80
2019-04-14T06:11:11.442Z,27.43
2019-04-14T06:13:37.544Z,29.00
2019-04-14T06:16:03.343Z,26.97
2019-04-14T06:18:29.430Z,27.70
2019-04-14T06:20:55.247Z,28.57
2019-04-14T06:23:21.098Z,26.13
2019-04-14T06:25:47.153Z,27.53
2019-04-14T06:28:12.951Z,26.40
2019-04-14T06:30:56.057Z,26.10
2019-04-14T06:33:38.698Z,27.52
2019-04-14T06:36:06.699Z,28.02
2019-04-14T06:38:34.678Z,28.10
2019-04-14T06:41:02.393Z,28.92
2019-04-14T06:43:28.277Z,28.15
2019-04-14T06:45:54.181Z,27.90
2019-04-14T06:48:20.021Z,28.20
2019-04-14T06:50:46.631Z,27.90
2019-04-14T06:53:12.466Z,26.30
2019-04-14T06:55:38.319Z,29.63
2019-04-14T06:58:04.158Z,27.50
2019-04-14T07:00:30.279Z,26.53
2019-04-14T07:02:56.432Z,26.20
2019-04-14T07:05:22.237Z,26.35
2019-04-14T07:07:56.982Z,26.50
2019-04-14T07:10:15.757Z,28.90
2019-04-14T07:12:43.163Z,27.80
2019-04-14T07:15:09.708Z,28.92
2019-04-14T07:17:35.515Z,27.60
2019-04-14T07:20:02.672Z,26.93
2019-04-14T07:22:28.550Z,29.77
2019-04-14T07:24:54.594Z,26.17
2019-04-14T07:27:20.732Z,27.48
2019-04-14T07:29:51.253Z,25.25
2019-04-14T07:32:34.165Z,26.20
2019-04-14T07:35:04.415Z,27.00
2019-04-14T07:37:32.153Z,27.70
2019-04-14T07:40:03.170Z,26.57
2019-04-14T07:42:37.285Z,25.77
2019-04-14T07:45:22.705Z,28.05
2019-04-14T07:47:59.357Z,28.05
2019-04-14T07:50:29.847Z,26.17
2019-04-14T07:53:06.735Z,29.48
2019-04-14T07:55:37.097Z,26.35
2019-04-14T07:58:19.783Z,28.45
2019-04-14T08:00:47.499Z,27.22
2019-04-14T08:03:24.513Z,28.32
2019-04-14T08:05:50.340Z,27.90
2019-04-14T08:08:16.133Z,27.00
2019-04-14T08:10:41.919Z,26.30
2019-04-14T08:13:08.017Z,29.47
2019-04-14T08:15:33.829Z,27.62
2019-04-14T08:17:59.926Z,29.33
2019-04-14T08:20:27.772Z,28.23
2019-04-14T08:22:53.494Z,29.15
2019-04-14T08:25:19.321Z,27.57
2019-04-14T08:27:45.125Z,30.47
2019-04-14T08:30:11.055Z,29.57
2019-04-14T08:32:37.150Z,28.27
2019-04-14T08:35:04.924Z,28.55
2019-04-14T08:37:30.750Z,27.62
2019-04-14T08:40:33.583Z,29.40
2019-04-14T08:43:01.564Z,27.70
2019-04-14T08:45:41.350Z,28.57
2019-04-14T08:48:18.126Z,29.27
2019-04-14T08:50:46.137Z,27.40
2019-04-14T08:53:14.082Z,29.18
2019-04-14T08:55:41.830Z,27.42
2019-04-14T08:58:22.181Z,27.70
2019-04-14T09:00:49.874Z,28.25
2019-04-14T09:03:32.640Z,27.20
2019-04-14T09:06:00.656Z,29.82
2019-04-14T09:08:34.218Z,27.15
2019-04-14T09:11:05.168Z,27.07
2019-04-14T09:13:31.238Z,30.10
2019-04-14T09:15:57.272Z,30.12
2019-04-14T09:18:23.084Z,29.12
2019-04-14T09:20:52.564Z,28.97
2019-04-14T09:23:20.280Z,29.70
2019-04-14T09:25:46.455Z,28.45
2019-04-14T09:28:12.534Z,28.50
2019-04-14T09:30:38.331Z,30.27
2019-04-14T09:33:04.137Z,28.53
2019-04-14T09:35:30.227Z,28.87
2019-04-14T09:37:56.029Z,27.50
2019-04-14T09:40:24.629Z,28.17
2019-04-14T09:42:50.442Z,28.17
2019-04-14T09:45:18.868Z,29.30
2019-04-14T09:47:44.943Z,26.68
2019-04-14T09:50:13.790Z,29.23
2019-04-14T09:52:39.579Z,28.52
2019-04-14T09:55:10.302Z,29.20
2019-04-14T09:57:36.380Z,26.80
2019-04-14T10:00:05.738Z,27.50
2019-04-14T10:02:31.540Z,27.42
2019-04-14T10:05:00.461Z,28.30
2019-04-14T10:07:26.294Z,28.45
2019-04-14T10:09:52.184Z,28.03
2019-04-14T10:12:18.065Z,29.70
2019-04-14T10:14:43.825Z,28.77
2019-04-14T10:17:09.884Z,27.90
2019-04-14T10:19:35.697Z,27.70
2019-04-14T10:22:04.791Z,29.73
2019-04-14T10:24:30.574Z,32.33
2019-04-14T10:26:59.536Z,30.17
2019-04-14T10:29:25.347Z,29.63
2019-04-14T10:31:56.151Z,29.13
2019-04-14T10:34:21.945Z,29.50
2019-04-14T10:36:51.128Z,28.37
2019-04-14T10:39:16.929Z,29.57
2019-04-14T10:41:45.490Z,28.50
2019-04-14T10:44:11.321Z,30.55
2019-04-14T10:46:37.182Z,25.97
2019-04-14T10:49:02.988Z,27.77
2019-04-14T10:51:30.340Z,28.50
2019-04-14T10:53:57.079Z,29.40
2019-04-14T10:56:23.172Z,28.60
2019-04-14T10:58:52.307Z,27.52
2019-04-14T11:01:18.100Z,26.93
2019-04-14T11:03:46.654Z,26.07
2019-04-14T11:06:14.639Z,25.88
2019-04-14T11:08:40.450Z,27.27
2019-04-14T11:11:06.497Z,28.83
2019-04-14T11:13:35.387Z,26.73
2019-04-14T11:16:01.482Z,28.70
2019-04-14T11:18:28.975Z,26.97
2019-04-14T11:20:54.779Z,28.55
2019-04-14T11:23:20.599Z,28.23
2019-04-14T11:25:46.409Z,25.97
2019-04-14T11:28:12.297Z,26.53
2019-04-14T11:30:41.216Z,26.67
2019-04-14T11:33:08.957Z,27.42
2019-04-14T11:35:36.670Z,27.70
2019-04-14T11:38:13.734Z,26.00
2019-04-14T11:40:41.433Z,28.25
2019-04-14T11:43:07.537Z,28.40
2019-04-14T11:45:33.471Z,28.07
2019-04-14T11:47:59.290Z,27.60
2019-04-14T11:50:25.101Z,28.40
2019-04-14T11:52:50.904Z,29.10
2019-04-14T11:55:17.025Z,26.13
2019-04-14T11:57:42.827Z,27.17
2019-04-14T12:00:11.016Z,27.70
2019-04-14T12:02:41.488Z,27.87
2019-04-14T12:05:12.583Z,26.93
2019-04-14T12:07:52.254Z,26.10
2019-04-14T12:10:18.468Z,26.27
2019-04-14T12:12:44.566Z,25.80
2019-04-14T12:15:16.159Z,27.63
2019-04-14T12:17:38.585Z,27.13
2019-04-14T12:20:05.369Z,28.70
2019-04-14T12:22:32.189Z,26.50
2019-04-14T12:24:58.105Z,27.53
2019-04-14T12:27:23.914Z,28.37
2019-04-14T12:29:50.114Z,30.17
2019-04-14T12:32:17.212Z,26.67
2019-04-14T12:34:43.194Z,27.55
2019-04-14T12:37:09.007Z,26.83
2019-04-14T12:39:34.797Z,27.87
2019-04-14T12:42:14.746Z,27.87
2019-04-14T12:44:48.520Z,27.67
2019-04-14T12:47:25.161Z,25.92
2019-04-14T12:49:55.923Z,27.50
2019-04-14T12:52:23.658Z,25.27
2019-04-14T12:54:49.486Z,27.73
2019-04-14T12:57:17.209Z,29.07
2019-04-14T12:59:42.999Z,25.87
2019-04-14T13:02:13.736Z,27.50
2019-04-14T13:04:39.546Z,27.50
2019-04-14T13:07:05.326Z,23.90
2019-04-14T13:09:31.402Z,23.80
2019-04-14T13:11:57.214Z,24.77
2019-04-14T13:14:23.042Z,25.60
2019-04-14T13:16:49.040Z,25.30
2019-04-14T13:19:14.853Z,23.70
2019-04-14T13:21:40.670Z,24.00
2019-04-14T13:24:06.905Z,25.57
2019-04-14T13:26:32.709Z,24.23
2019-04-14T13:28:58.782Z,20.30
2019-04-14T13:31:25.219Z,19.03
2019-04-14T13:33:51.128Z,18.80
2019-04-14T13:36:16.942Z,20.77
2019-04-14T13:38:42.987Z,19.80
2019-04-14T13:41:09.087Z,18.73
2019-04-14T13:43:34.867Z,18.57
2019-04-14T13:46:01.068Z,16.50
2019-04-14T13:48:27.166Z,17.27
2019-04-14T13:50:52.995Z,16.60
2019-04-14T13:53:19.069Z,17.20
2019-04-14T13:55:45.137Z,16.80
2019-04-14T13:58:11.220Z,14.93
2019-04-14T14:00:37.026Z,14.13
2019-04-14T14:03:02.922Z,16.60
2019-04-14T14:05:28.938Z,15.70
2019-04-14T14:07:54.751Z,15.20
2019-04-14T14:10:20.656Z,16.50
2019-04-14T14:12:51.399Z,16.97
2019-04-14T14:15:36.004Z,15.90
2019-04-14T14:18:22.347Z,15.70
2019-04-14T14:20:50.112Z,15.00
2019-04-14T14:23:27.902Z,14.00
2019-04-14T14:26:01.826Z,14.90
2019-04-14T14:28:27.622Z,16.70
2019-04-14T14:30:53.423Z,14.27
2019-04-14T14:33:19.244Z,16.87
2019-04-14T14:35:45.059Z,16.13
2019-04-14T14:38:10.883Z,16.80
2019-04-14T14:40:36.673Z,16.20
2019-04-14T14:43:05.599Z,14.90
2019-04-14T14:45:42.610Z,16.70
2019-04-14T14:48:13.327Z,16.73
2019-04-14T14:50:41.055Z,16.43
2019-04-14T14:53:12.306Z,17.50
2019-04-14T14:55:34.571Z,16.50
2019-04-14T14:58:00.669Z,15.70
2019-04-14T15:00:28.719Z,17.63
2019-04-14T15:02:54.550Z,15.37
2019-04-14T15:05:20.318Z,16.33
2019-04-14T15:07:46.103Z,15.77
2019-04-14T15:10:12.025Z,16.30
2019-04-14T15:12:38.103Z,17.00
2019-04-14T15:15:05.855Z,15.67
2019-04-14T15:17:31.907Z,15.50
2019-04-14T15:19:57.714Z,13.20
2019-04-14T15:22:23.533Z,14.93
2019-04-14T15:24:49.358Z,16.93
2019-04-14T15:27:15.284Z,15.60
2019-04-14T15:29:41.337Z,16.07
2019-04-14T15:32:07.435Z,13.80
2019-04-14T15:34:33.485Z,15.00
2019-04-14T15:36:59.291Z,14.83
2019-04-14T15:39:25.146Z,14.83
2019-04-14T15:41:54.314Z,14.10
2019-04-14T15:44:20.149Z,15.23
2019-04-14T15:46:46.266Z,14.53
2019-04-14T15:49:12.077Z,15.00
2019-04-14T15:51:43.041Z,15.33
2019-04-14T15:54:09.168Z,13.13
2019-04-14T15:56:45.681Z,14.87
2019-04-14T15:59:13.432Z,13.50
2019-04-14T16:01:50.781Z,14.53
2019-04-14T16:04:27.580Z,14.30
2019-04-14T16:06:55.262Z,14.80
2019-04-14T16:09:31.919Z,15.77
2019-04-14T16:11:59.685Z,15.70
2019-04-14T16:14:36.843Z,16.30
2019-04-14T16:17:15.859Z,15.40
2019-04-14T16:19:47.473Z,16.17
2019-04-14T16:22:13.585Z,14.93
2019-04-14T16:24:42.630Z,15.87
2019-04-14T16:27:10.363Z,17.47
2019-04-14T16:29:39.477Z,14.93
2019-04-14T16:32:19.395Z,15.53
2019-04-14T16:34:56.642Z,15.72
2019-04-14T16:37:22.739Z,15.30
2019-04-14T16:39:48.522Z,15.70
2019-04-14T16:42:14.606Z,16.53
2019-04-14T16:44:40.721Z,14.23
2019-04-14T16:47:06.506Z,14.90
2019-04-14T16:49:32.305Z,15.80
2019-04-14T16:52:00.006Z,14.93
2019-04-14T16:54:44.211Z,15.50
2019-04-14T16:57:29.225Z,14.30
2019-04-14T16:59:55.220Z,15.08
2019-04-14T17:02:21.313Z,14.53
2019-04-14T17:04:47.092Z,15.13
2019-04-14T17:07:13.169Z,15.07
2019-04-14T17:09:38.986Z,14.33
2019-04-14T17:12:04.795Z,14.93
2019-04-14T17:14:36.303Z,13.67
2019-04-14T17:17:24.538Z,14.07
2019-04-14T17:19:57.155Z,13.50
2019-04-14T17:22:28.145Z,14.47
2019-04-14T17:25:05.198Z,14.50
2019-04-14T17:27:33.196Z,15.45
2019-04-14T17:30:03.781Z,14.18
2019-04-14T17:32:31.468Z,14.07
2019-04-14T17:35:15.914Z,12.55
2019-04-14T17:37:43.888Z,13.15
2019-04-14T17:40:23.963Z,14.53
2019-04-14T17:42:54.185Z,13.58
2019-04-14T17:45:25.096Z,14.78
2019-04-14T17:47:52.803Z,13.58
2019-04-14T17:50:25.416Z,12.35
2019-04-14T17:52:59.327Z,12.88
2019-04-14T17:55:27.417Z,14.83
2019-04-14T17:57:55.240Z,14.60
2019-04-14T18:00:23.252Z,13.25
2019-04-14T18:03:06.079Z,13.90
2019-04-14T18:05:34.062Z,12.75
2019-04-14T18:08:02.040Z,11.95
2019-04-14T18:10:35.596Z,12.63
2019-04-14T18:13:09.362Z,11.53
2019-04-14T18:15:54.244Z,12.00
2019-04-14T18:18:24.730Z,11.48
2019-04-14T18:20:52.469Z,10.85
2019-04-14T18:23:18.289Z,11.68
2019-04-14T18:25:44.381Z,11.23
2019-04-14T18:28:28.576Z,11.65
2019-04-14T18:31:05.241Z,11.15
2019-04-14T18:33:35.846Z,12.58
2019-04-14T18:36:06.893Z,11.75
2019-04-14T18:38:46.982Z,10.70
2019-04-14T18:41:14.986Z,11.18
2019-04-14T18:43:58.133Z,10.85
2019-04-14T18:46:28.873Z,11.20
2019-04-14T18:49:02.235Z,11.22
2019-04-14T18:51:33.142Z,10.43
2019-04-14T18:54:00.835Z,14.70
2019-04-14T18:56:46.804Z,56.77
2019-04-14T18:59:31.511Z,12.78
2019-04-14T19:01:57.362Z,11.85
2019-04-14T19:04:23.191Z,10.33
2019-04-14T19:06:49.233Z,10.63
2019-04-14T19:09:15.088Z,10.40
2019-04-14T19:11:42.813Z,12.80
2019-04-14T19:14:10.562Z,11.63
2019-04-14T19:16:40.019Z,12.30
2019-04-14T19:19:07.688Z,10.78
2019-04-14T19:21:33.522Z,10.60
2019-04-14T19:23:59.603Z,10.00
2019-04-14T19:26:25.480Z,11.00
2019-04-14T19:28:51.293Z,10.43
2019-04-14T19:31:17.082Z,10.80
2019-04-14T19:33:42.903Z,10.77
2019-04-14T19:36:08.703Z,10.90
2019-04-14T19:38:34.517Z,10.90
2019-04-14T19:41:00.579Z,10.97
2019-04-14T19:43:26.401Z,11.65
2019-04-14T19:45:52.489Z,9.70
2019-04-14T19:48:18.535Z,11.60
2019-04-14T19:50:44.351Z,10.90
2019-04-14T19:53:10.230Z,11.30
2019-04-14T19:55:37.355Z,11.80
2019-04-14T19:58:03.387Z,11.33
2019-04-14T20:00:29.245Z,12.20
2019-04-14T20:02:55.114Z,11.43
2019-04-14T20:05:20.909Z,11.27
2019-04-14T20:07:46.803Z,11.40
2019-04-14T20:10:13.110Z,10.47
2019-04-14T20:12:38.921Z,11.35
2019-04-14T20:15:05.418Z,11.53
2019-04-14T20:17:50.109Z,11.50
2019-04-14T20:20:20.798Z,11.73
2019-04-14T20:22:48.577Z,12.20
2019-04-14T20:25:33.712Z,11.33
2019-04-14T20:28:03.525Z,13.08
2019-04-14T20:30:34.016Z,11.28
2019-04-14T20:33:00.050Z,12.40
2019-04-14T20:35:25.853Z,11.00
2019-04-14T20:37:51.742Z,10.60
2019-04-14T20:40:17.676Z,12.10
2019-04-14T20:42:43.739Z,10.70
2019-04-14T20:45:11.763Z,10.60
2019-04-14T20:47:37.856Z,12.25
2019-04-14T20:50:05.647Z,11.38
2019-04-14T20:52:31.457Z,12.47
2019-04-14T20:54:57.528Z,13.00
2019-04-14T20:57:23.476Z,12.35
2019-04-14T20:59:49.563Z,11.57
2019-04-14T21:02:29.449Z,11.25
2019-04-14T21:04:57.166Z,11.70
2019-04-14T21:07:24.884Z,9.35
2019-04-14T21:09:55.343Z,10.48
2019-04-14T21:12:29.052Z,10.68
2019-04-14T21:15:05.838Z,10.50
2019-04-14T21:17:42.093Z,9.50
2019-04-14T21:20:10.272Z,10.05
2019-04-14T21:22:44.636Z,10.10
2019-04-14T21:25:18.512Z,9.93
2019-04-14T21:27:58.451Z,11.12
2019-04-14T21:30:26.153Z,10.28
2019-04-14T21:33:02.748Z,10.95
2019-04-14T21:35:42.658Z,11.30
2019-04-14T21:38:26.893Z,11.57
2019-04-14T21:41:00.648Z,16.50
2019-04-14T21:43:26.445Z,12.93
2019-04-14T21:45:52.524Z,9.77
2019-04-14T21:48:18.547Z,10.03
2019-04-14T21:50:45.258Z,10.60
2019-04-14T21:53:11.375Z,10.70
2019-04-14T21:55:37.406Z,10.00
2019-04-14T21:58:21.842Z,11.22
2019-04-14T22:01:05.101Z,11.08
2019-04-14T22:03:51.295Z,10.82
2019-04-14T22:06:34.113Z,11.40
2019-04-14T22:08:59.943Z,10.50
2019-04-14T22:11:27.733Z,10.30
2019-04-14T22:13:53.904Z,10.85
2019-04-14T22:16:22.716Z,10.25
2019-04-14T22:18:48.823Z,11.45
2019-04-14T22:21:17.799Z,11.85
2019-04-14T22:23:43.902Z,11.10
2019-04-14T22:26:09.705Z,12.33
2019-04-14T22:28:35.846Z,11.77
2019-04-14T22:31:03.912Z,11.12
2019-04-14T22:33:29.737Z,11.35
2019-04-14T22:35:58.741Z,11.10
2019-04-14T22:38:24.536Z,10.70
2019-04-14T22:40:53.934Z,11.00
2019-04-14T22:43:19.861Z,11.75
2019-04-14T22:45:45.662Z,10.70
2019-04-14T22:48:11.486Z,11.83
2019-04-14T22:50:37.580Z,10.57
2019-04-14T22:53:06.199Z,10.53
2019-04-14T22:55:32.094Z,10.63
2019-04-14T22:58:00.954Z,11.60
2019-04-14T23:00:40.947Z,11.28
2019-04-14T23:03:11.228Z,10.00
2019-04-14T23:05:51.229Z,10.80
2019-04-14T23:08:21.742Z,10.85
2019-04-14T23:11:06.701Z,10.15
2019-04-14T23:13:51.415Z,10.65
2019-04-14T23:16:23.221Z,10.13
2019-04-14T23:18:56.581Z,9.70
2019-04-14T23:21:30.312Z,9.68
2019-04-14T23:24:07.546Z,10.70
2019-04-14T23:26:33.357Z,10.05
2019-04-14T23:28:59.185Z,9.03
2019-04-14T23:31:24.982Z,10.73
2019-04-14T23:33:50.794Z,10.47
2019-04-14T23:36:16.591Z,9.53
2019-04-14T23:38:42.408Z,9.17
2019-04-14T23:41:08.232Z,9.50
2019-04-14T23:43:34.270Z,9.90
2019-04-14T23:46:00.473Z,8.73
2019-04-14T23:48:26.539Z,8.53
2019-04-14T23:50:52.365Z,8.78
2019-04-14T23:53:18.458Z,9.33
2019-04-14T23:55:44.284Z,8.83
2019-04-14T23:58:10.125Z,10.20
